Terminal Aerodrome Forecast
Issued by NWS Pueblo, CO

Home | Current Version | Previous Version | Text Only | Print | Product List | Glossary On
Versions: 1 2 3 4 5 6 7 8 9 10 11 12 13 14 15 16 17
000
FTUS45 KPUB 280520
TAFPUB
TAF
KPUB 280520Z 2806/2906 36009KT P6SM -SHRA FEW050 SCT080 BKN200
     FM280800 33006KT P6SM SCT120 BKN200
     FM281800 13008KT P6SM FEW120 SCT200
     FM282100 14011KT P6SM SCT100 BKN200
     FM290100 08009KT P6SM VCTS SCT070CB BKN120=

USA.gov is the U.S. government's official web portal to all federal, state and local government web resources and services.